Humidity-temperature Sensor

Selected Measurement Type: Air Temperature

 
Air Temperature [°C]     6 entries per hour
Showing data from 2/16/2023 (00:00:00 Z) to 2/9/2023 (00:01:00 Z)
Previous Next [ Day | 3-Days | 7-Days ]
First Last
Prev [ Day | 3-Days | 7-Days ] Next
First Last

Start Time:     :
End Time:     :     
Time (in GMT) :00 :50 :40 :30 :20 :10
Previous Next [ Day | 3-Days | 7-Days ]
First Last
Prev [ Day | 3-Days | 7-Days ] Next
First Last


123 => good data
MM => data is determined as missing
-- => data not received/configured
Back to Top Back to Top
2/16/2023 00:00 to 23:10 26.71 26.75 26.78 26.78 26.74 26.95
2/15/2023 23:00 to 22:10 26.98 27.09 26.81 26.80 26.79 27.05
2/15/2023 22:00 to 21:10 26.76 26.78 27.06 26.84 26.93 26.81
2/15/2023 21:00 to 20:10 26.84 27.03 26.86 26.81 26.95 26.74
2/15/2023 20:00 to 19:10 26.84 27.00 26.70 26.91 26.84 26.76
2/15/2023 19:00 to 18:10 26.99 26.95 27.00 27.05 27.12 26.90
2/15/2023 18:00 to 17:10 26.84 26.86 26.93 26.84 26.79 26.88
2/15/2023 17:00 to 16:10 26.91 26.71 26.88 26.85 26.85 26.74
2/15/2023 16:00 to 15:10 26.76 26.71 26.85 26.73 26.88 27.01
2/15/2023 15:00 to 14:10 26.75 26.97 26.93 26.72 26.71 26.72
2/15/2023 14:00 to 13:10 26.70 26.58 26.55 26.52 26.60 26.44
2/15/2023 13:00 to 12:10 26.51 26.64 26.56 26.48 26.58 26.56
2/15/2023 12:00 to 11:10 26.46 26.43 26.44 26.49 26.53 26.50
2/15/2023 11:00 to 10:10 26.54 26.51 26.38 26.50 26.43 26.57
2/15/2023 10:00 to 9:10 26.36 26.36 26.37 26.43 26.51 26.46
2/15/2023 09:00 to 8:10 26.65 26.60 26.49 26.50 26.61 26.58
2/15/2023 08:00 to 7:10 26.61 26.45 26.51 26.56 26.60 26.61
2/15/2023 07:00 to 6:10 26.63 26.70 26.64 26.64 26.89 26.70
2/15/2023 06:00 to 5:10 26.62 26.85 26.73 26.65 26.83 26.88
2/15/2023 05:00 to 4:10 26.72 26.87 26.60 26.77 26.84 27.01
2/15/2023 04:00 to 3:10 26.76 26.89 27.09 26.96 26.94 26.91
2/15/2023 03:00 to 2:10 26.61 26.81 26.82 26.72 26.86 26.79
2/15/2023 02:00 to 1:10 26.59 26.76 26.78 26.86 26.65 26.86
2/15/2023 01:00 to 0:10 26.71 26.79 26.98 26.81 26.86 26.93
2/15/2023 00:00 to 23:10 26.88 26.77 26.79 26.87 26.73 26.79
2/14/2023 23:00 to 22:10 26.67 26.77 26.69 26.88 26.86 26.72
2/14/2023 22:00 to 21:10 26.69 26.73 26.63 26.70 26.71 26.86
2/14/2023 21:00 to 20:10 26.71 26.69 26.64 26.66 26.71 26.78
2/14/2023 20:00 to 19:10 26.85 26.76 26.78 26.69 26.74 26.78
2/14/2023 19:00 to 18:10 26.82 26.86 26.67 26.78 26.68 26.76
2/14/2023 18:00 to 17:10 26.79 26.66 26.57 26.71 26.67 26.62
2/14/2023 17:00 to 16:10 26.49 26.82 26.69 26.58 26.68 26.66
2/14/2023 16:00 to 15:10 26.51 26.56 26.81 26.77 26.88 26.83
2/14/2023 15:00 to 14:10 26.71 26.68 26.67 27.04 26.73 26.54
2/14/2023 14:00 to 13:10 26.66 26.62 26.47 26.37 26.15 26.19
2/14/2023 13:00 to 12:10 26.12 26.15 25.92 25.77 25.55 25.53
2/14/2023 12:00 to 11:10 25.46 25.65 25.51 25.37 25.67 25.57
2/14/2023 11:00 to 10:10 25.36 25.48 25.28 25.28 25.35 25.38
2/14/2023 10:00 to 9:10 25.39 25.04 25.22 25.15 25.27 25.40
2/14/2023 09:00 to 8:10 25.67 25.49 25.38 25.44 25.28 26.10
2/14/2023 08:00 to 7:10 25.89 25.89 25.51 25.68 25.55 25.56
2/14/2023 07:00 to 6:10 25.71 25.72 25.76 25.71 25.73 25.83
2/14/2023 06:00 to 5:10 25.78 25.77 25.38 25.28 25.10 25.11
2/14/2023 05:00 to 4:10 25.14 25.13 25.05 24.87 24.79 24.86
2/14/2023 04:00 to 3:10 24.65 24.60 24.62 24.46 24.18 24.38
2/14/2023 03:00 to 2:10 24.74 24.71 24.65 24.68 25.23 25.76
2/14/2023 02:00 to 1:10 27.10 27.09 26.90 26.94 26.91 26.99
2/14/2023 01:00 to 0:10 27.02 27.15 27.04 26.89 27.07 26.99
2/14/2023 00:00 to 23:10 27.02 26.89 26.99 26.92 26.86 26.93
2/13/2023 23:00 to 22:10 26.98 27.00 26.98 26.70 26.96 26.96
2/13/2023 22:00 to 21:10 26.96 27.00 26.87 26.91 27.07 27.16
2/13/2023 21:00 to 20:10 27.00 26.94 26.88 26.96 26.95 26.97
2/13/2023 20:00 to 19:10 26.86 26.98 26.86 26.97 27.03 27.18
2/13/2023 19:00 to 18:10 26.95 26.91 26.82 26.90 26.72 26.67
2/13/2023 18:00 to 17:10 26.81 27.07 26.92 26.82 26.79 26.86
2/13/2023 17:00 to 16:10 -- -- -- -- -- --
2/13/2023 16:00 to 15:10 26.76 26.80 26.79 26.89 26.75 26.77
2/13/2023 15:00 to 14:10 26.89 26.61 26.71 26.75 26.90 26.67
2/13/2023 14:00 to 13:10 26.68 26.69 26.68 26.51 26.57 26.54
2/13/2023 13:00 to 12:10 26.40 26.59 26.61 26.50 26.42 26.62
2/13/2023 12:00 to 11:10 26.49 26.49 26.51 26.70 26.48 26.65
2/13/2023 11:00 to 10:10 26.50 26.69 26.70 26.67 26.77 26.78
2/13/2023 10:00 to 9:10 26.63 26.82 26.65 26.72 26.58 26.66
2/13/2023 09:00 to 8:10 26.66 26.68 26.72 26.67 26.73 26.71
2/13/2023 08:00 to 7:10 26.79 26.89 26.80 26.78 26.72 26.89
2/13/2023 07:00 to 6:10 26.79 26.82 26.92 26.72 26.90 26.81
2/13/2023 06:00 to 5:10 26.84 26.79 26.74 26.97 27.03 26.86
2/13/2023 05:00 to 4:10 26.88 27.00 27.09 26.90 26.85 26.87
2/13/2023 04:00 to 3:10 26.98 27.10 26.94 26.96 26.94 26.97
2/13/2023 03:00 to 2:10 27.03 27.05 27.03 26.92 26.90 27.01
2/13/2023 02:00 to 1:10 26.98 26.95 26.79 26.90 27.16 27.00
2/13/2023 01:00 to 0:10 26.95 27.01 27.26 27.09 26.96 26.98
2/13/2023 00:00 to 23:10 27.11 27.13 27.04 27.14 27.04 27.13
2/12/2023 23:00 to 22:10 27.10 27.10 27.00 26.88 26.96 26.85
2/12/2023 22:00 to 21:10 27.15 27.01 26.99 26.84 26.93 27.05
2/12/2023 21:00 to 20:10 26.80 26.81 26.86 26.92 26.87 26.78
2/12/2023 20:00 to 19:10 26.83 26.81 26.73 26.97 26.83 26.72
2/12/2023 19:00 to 18:10 26.81 26.74 26.81 26.71 26.74 26.72
2/12/2023 18:00 to 17:10 26.99 26.89 26.73 26.53 26.75 26.85
2/12/2023 17:00 to 16:10 26.62 26.78 26.90 26.91 26.64 26.87
2/12/2023 16:00 to 15:10 26.83 26.63 26.52 26.89 26.72 27.07
2/12/2023 15:00 to 14:10 26.91 26.81 26.72 26.75 26.92 26.70
2/12/2023 14:00 to 13:10 26.69 26.60 26.71 26.81 26.60 26.37
2/12/2023 13:00 to 12:10 26.53 26.43 26.54 26.35 26.39 26.53
2/12/2023 12:00 to 11:10 26.40 26.44 26.37 26.40 26.39 26.46
2/12/2023 11:00 to 10:10 26.54 26.62 26.40 26.30 26.44 26.42
2/12/2023 10:00 to 9:10 26.46 26.47 26.60 26.58 26.51 26.66
2/12/2023 09:00 to 8:10 26.36 26.61 26.40 26.44 26.48 26.57
2/12/2023 08:00 to 7:10 26.71 26.67 26.49 26.34 26.58 26.54
2/12/2023 07:00 to 6:10 26.72 26.61 26.67 26.79 26.76 26.74
2/12/2023 06:00 to 5:10 26.73 26.83 26.76 26.80 26.87 26.66
2/12/2023 05:00 to 4:10 26.82 26.88 26.85 26.68 26.84 26.77
2/12/2023 04:00 to 3:10 26.79 26.80 26.94 26.81 26.79 26.77
2/12/2023 03:00 to 2:10 26.75 26.95 26.84 27.05 27.01 26.75
2/12/2023 02:00 to 1:10 26.71 26.76 26.86 26.95 26.73 26.60
2/12/2023 01:00 to 0:10 26.77 26.68 26.69 26.83 26.67 26.81
2/12/2023 00:00 to 23:10 26.86 26.89 26.82 26.91 26.85 26.67
2/11/2023 23:00 to 22:10 26.92 26.67 26.65 26.87 26.57 26.75
2/11/2023 22:00 to 21:10 26.76 26.75 26.78 26.72 26.81 26.66
2/11/2023 21:00 to 20:10 26.74 26.58 26.88 26.83 26.85 26.63
2/11/2023 20:00 to 19:10 26.61 26.69 26.80 26.76 26.79 26.78
2/11/2023 19:00 to 18:10 26.90 26.62 26.56 26.71 26.57 26.66
2/11/2023 18:00 to 17:10 26.61 26.71 26.85 26.65 26.79 26.65
2/11/2023 17:00 to 16:10 26.77 26.67 26.82 26.80 26.60 26.75
2/11/2023 16:00 to 15:10 26.73 26.66 26.73 26.66 26.81 26.65
2/11/2023 15:00 to 14:10 26.67 26.48 26.62 26.71 26.56 26.40
2/11/2023 14:00 to 13:10 26.32 26.39 26.34 26.34 26.59 26.52
2/11/2023 13:00 to 12:10 26.30 26.30 26.30 26.31 26.33 26.28
2/11/2023 12:00 to 11:10 26.09 26.30 26.24 26.21 26.26 26.38
2/11/2023 11:00 to 10:10 26.25 26.18 26.26 26.32 26.22 26.10
2/11/2023 10:00 to 9:10 26.10 26.15 26.23 26.24 26.06 26.17
2/11/2023 09:00 to 8:10 26.24 26.30 26.19 26.34 26.20 26.07
2/11/2023 08:00 to 7:10 26.21 26.35 26.21 26.15 26.27 26.21
2/11/2023 07:00 to 6:10 26.58 26.32 26.37 26.27 26.29 26.50
2/11/2023 06:00 to 5:10 26.36 26.38 26.46 26.45 26.46 26.44
2/11/2023 05:00 to 4:10 26.46 26.54 26.32 26.53 26.51 26.54
2/11/2023 04:00 to 3:10 26.45 26.49 26.42 26.65 26.42 26.48
2/11/2023 03:00 to 2:10 26.52 26.62 26.59 26.50 26.57 26.59
2/11/2023 02:00 to 1:10 26.55 26.41 26.38 26.55 26.52 26.50
2/11/2023 01:00 to 0:10 26.43 26.47 26.43 26.43 26.45 26.46
2/11/2023 00:00 to 23:10 26.42 26.52 26.35 26.42 26.58 26.56
2/10/2023 23:00 to 22:10 26.50 26.46 26.56 26.46 26.45 26.69
2/10/2023 22:00 to 21:10 26.62 26.62 26.42 26.43 26.35 26.56
2/10/2023 21:00 to 20:10 26.72 26.61 26.73 26.62 26.48 26.55
2/10/2023 20:00 to 19:10 26.67 26.76 26.49 26.47 26.76 26.77
2/10/2023 19:00 to 18:10 26.56 26.50 26.76 26.69 26.74 26.51
2/10/2023 18:00 to 17:10 26.59 26.48 26.53 26.61 26.57 26.54
2/10/2023 17:00 to 16:10 26.67 26.75 26.48 26.57 26.40 26.51
2/10/2023 16:00 to 15:10 26.35 26.63 26.68 26.42 26.52 26.59
2/10/2023 15:00 to 14:10 26.51 26.69 26.50 26.49 26.48 26.65
2/10/2023 14:00 to 13:10 26.55 26.50 26.48 26.29 26.24 26.35
2/10/2023 13:00 to 12:10 26.14 26.09 26.09 26.23 26.27 25.99
2/10/2023 12:00 to 11:10 26.15 26.03 26.12 26.05 26.11 26.16
2/10/2023 11:00 to 10:10 26.17 26.23 26.01 26.27 26.19 26.08
2/10/2023 10:00 to 9:10 26.36 26.24 26.23 26.38 26.45 26.28
2/10/2023 09:00 to 8:10 26.21 26.29 26.35 26.50 26.43 26.29
2/10/2023 08:00 to 7:10 26.32 26.48 26.46 26.49 26.45 26.46
2/10/2023 07:00 to 6:10 26.52 26.53 26.48 26.55 26.30 26.61
2/10/2023 06:00 to 5:10 26.55 26.55 26.57 26.56 26.61 26.67
2/10/2023 05:00 to 4:10 26.57 26.69 26.64 26.61 26.58 26.70
2/10/2023 04:00 to 3:10 26.57 26.62 26.67 26.68 26.71 26.65
2/10/2023 03:00 to 2:10 26.73 26.56 26.73 26.66 26.41 26.65
2/10/2023 02:00 to 1:10 26.79 26.81 26.70 26.71 26.55 26.58
2/10/2023 01:00 to 0:10 26.77 26.64 26.72 26.62 26.58 26.77
2/10/2023 00:00 to 23:10 26.58 26.71 26.52 26.61 26.72 26.65
2/9/2023 23:00 to 22:10 26.56 26.55 26.57 26.69 26.57 26.57
2/9/2023 22:00 to 21:10 26.63 26.78 26.59 26.60 26.68 26.66
2/9/2023 21:00 to 20:10 26.79 26.53 26.64 26.63 26.65 26.51
2/9/2023 20:00 to 19:10 26.74 26.62 26.52 26.57 26.45 26.60
2/9/2023 19:00 to 18:10 26.59 26.62 26.48 26.58 26.65 26.50
2/9/2023 18:00 to 17:10 26.64 26.58 26.59 26.57 26.75 26.69
2/9/2023 17:00 to 16:10 26.54 26.73 26.54 26.56 26.53 26.64
2/9/2023 16:00 to 15:10 26.68 26.45 26.53 26.73 26.65 26.59
2/9/2023 15:00 to 14:10 26.53 26.51 26.62 26.55 26.56 26.47
2/9/2023 14:00 to 13:10 26.52 26.47 26.48 26.57 26.35 26.50
2/9/2023 13:00 to 12:10 26.33 26.40 26.49 26.27 26.45 26.28
2/9/2023 12:00 to 11:10 26.27 26.44 26.32 26.24 26.21 26.26
2/9/2023 11:00 to 10:10 26.07 26.22 26.34 26.19 26.18 26.33
2/9/2023 10:00 to 9:10 26.32 26.24 26.13 26.19 26.27 26.17
2/9/2023 09:00 to 8:10 26.36 26.26 26.45 26.27 26.34 26.28
2/9/2023 08:00 to 7:10 26.46 26.41 26.28 26.29 26.43 26.37
2/9/2023 07:00 to 6:10 26.56 26.58 26.54 26.43 26.48 26.59
2/9/2023 06:00 to 5:10 26.52 26.64 26.66 26.59 26.67 26.83
2/9/2023 05:00 to 4:10 26.89 26.88 26.69 26.87 26.65 26.66
2/9/2023 04:00 to 3:10 26.50 26.42 26.71 26.56 26.58 26.52
2/9/2023 03:00 to 2:10 26.60 26.67 26.45 26.55 26.70 26.60
2/9/2023 02:00 to 1:10 26.57 26.58 26.76 26.80 26.70 26.65
2/9/2023 01:00 to 0:10 26.62 26.76 26.64 26.80 26.70 26.72